sensor_id;sensor_type;location;lat;lon;timestamp;pressure;altitude;pressure_sealevel;temperature;humidity
11053;BME280;55230;42.602;23.470;2023-02-16T00:01:16;94699.19;;;-1.34;100.00
11053;BME280;55230;42.602;23.470;2023-02-16T00:03:43;94686.03;;;-1.46;100.00
11053;BME280;55230;42.602;23.470;2023-02-16T00:06:10;94727.94;;;-1.32;100.00
11053;BME280;55230;42.602;23.470;2023-02-16T00:08:41;94708.91;;;-1.38;100.00
11053;BME280;55230;42.602;23.470;2023-02-16T00:13:57;94679.97;;;-1.62;100.00
11053;BME280;55230;42.602;23.470;2023-02-16T00:16:25;94713.59;;;-1.47;100.00
11053;BME280;55230;42.602;23.470;2023-02-16T00:18:52;94640.81;;;-1.87;100.00
11053;BME280;55230;42.602;23.470;2023-02-16T00:21:20;94669.63;;;-1.82;100.00
11053;BME280;55230;42.602;23.470;2023-02-16T00:23:47;94663.91;;;-1.84;100.00
11053;BME280;55230;42.602;23.470;2023-02-16T00:26:16;94694.75;;;-1.61;100.00
11053;BME280;55230;42.602;23.470;2023-02-16T00:28:43;94619.47;;;-2.10;100.00
11053;BME280;55230;42.602;23.470;2023-02-16T00:31:15;94695.16;;;-1.59;100.00
11053;BME280;55230;42.602;23.470;2023-02-16T00:33:44;94666.47;;;-1.88;100.00
11053;BME280;55230;42.602;23.470;2023-02-16T00:36:11;94631.41;;;-2.16;100.00
11053;BME280;55230;42.602;23.470;2023-02-16T00:38:38;94683.81;;;-1.75;100.00
11053;BME280;55230;42.602;23.470;2023-02-16T00:41:05;94641.06;;;-2.08;100.00
11053;BME280;55230;42.602;23.470;2023-02-16T00:43:52;94689.09;;;-1.75;100.00
11053;BME280;55230;42.602;23.470;2023-02-16T00:46:20;94694.81;;;-1.73;100.00
11053;BME280;55230;42.602;23.470;2023-02-16T00:48:48;94715.97;;;-1.73;100.00
11053;BME280;55230;42.602;23.470;2023-02-16T00:51:15;94641.81;;;-2.23;100.00
11053;BME280;55230;42.602;23.470;2023-02-16T00:53:42;94620.66;;;-2.23;100.00
11053;BME280;55230;42.602;23.470;2023-02-16T00:56:12;94693.00;;;-1.69;100.00
11053;BME280;55230;42.602;23.470;2023-02-16T00:58:42;94711.00;;;-1.90;100.00
11053;BME280;55230;42.602;23.470;2023-02-16T01:01:12;94687.16;;;-1.78;100.00
11053;BME280;55230;42.602;23.470;2023-02-16T01:03:40;94396.47;;;-4.01;100.00
11053;BME280;55230;42.602;23.470;2023-02-16T01:06:10;94639.31;;;-2.59;100.00
11053;BME280;55230;42.602;23.470;2023-02-16T01:09:02;94660.16;;;-1.99;100.00
11053;BME280;55230;42.602;23.470;2023-02-16T01:11:52;94660.41;;;-2.04;100.00
11053;BME280;55230;42.602;23.470;2023-02-16T01:14:19;94529.22;;;-2.86;100.00
11053;BME280;55230;42.602;23.470;2023-02-16T01:16:46;94232.78;;;-4.70;100.00
11053;BME280;55230;42.602;23.470;2023-02-16T01:19:13;94668.22;;;-1.80;100.00
11053;BME280;55230;42.602;23.470;2023-02-16T01:21:41;94667.94;;;-1.75;100.00
11053;BME280;55230;42.602;23.470;2023-02-16T01:24:08;94608.47;;;-2.27;100.00
11053;BME280;55230;42.602;23.470;2023-02-16T01:26:37;94666.06;;;-1.74;100.00
11053;BME280;55230;42.602;23.470;2023-02-16T01:29:04;94663.41;;;-1.74;100.00
11053;BME280;55230;42.602;23.470;2023-02-16T01:31:31;94592.69;;;-2.24;100.00
11053;BME280;55230;42.602;23.470;2023-02-16T01:33:58;94660.28;;;-1.80;100.00
11053;BME280;55230;42.602;23.470;2023-02-16T01:36:27;94624.50;;;-2.20;100.00
11053;BME280;55230;42.602;23.470;2023-02-16T01:38:56;94398.53;;;-3.55;100.00
11053;BME280;55230;42.602;23.470;2023-02-16T01:41:32;94178.53;;;-5.02;100.00
11053;BME280;55230;42.602;23.470;2023-02-16T01:44:08;94554.84;;;-2.59;100.00
11053;BME280;55230;42.602;23.470;2023-02-16T01:46:42;94648.97;;;-2.08;100.00
11053;BME280;55230;42.602;23.470;2023-02-16T01:49:11;94669.81;;;-1.91;100.00
11053;BME280;55230;42.602;23.470;2023-02-16T01:51:55;94557.31;;;-2.51;100.00
11053;BME280;55230;42.602;23.470;2023-02-16T01:54:33;94547.34;;;-2.57;100.00
11053;BME280;55230;42.602;23.470;2023-02-16T01:57:05;94644.66;;;-2.00;100.00
11053;BME280;55230;42.602;23.470;2023-02-16T01:59:40;94596.97;;;-2.35;100.00
11053;BME280;55230;42.602;23.470;2023-02-16T02:02:27;94640.03;;;-2.03;100.00
11053;BME280;55230;42.602;23.470;2023-02-16T02:04:57;94640.13;;;-1.84;100.00
11053;BME280;55230;42.602;23.470;2023-02-16T02:07:46;94356.66;;;-3.72;100.00
11053;BME280;55230;42.602;23.470;2023-02-16T02:10:21;94651.13;;;-1.82;100.00
11053;BME280;55230;42.602;23.470;2023-02-16T02:12:54;94639.56;;;-1.93;100.00
11053;BME280;55230;42.602;23.470;2023-02-16T02:15:24;94645.50;;;-1.96;100.00
11053;BME280;55230;42.602;23.470;2023-02-16T02:17:53;94631.66;;;-2.21;100.00
11053;BME280;55230;42.602;23.470;2023-02-16T02:20:24;94597.13;;;-2.44;100.00
11053;BME280;55230;42.602;23.470;2023-02-16T02:23:21;94634.00;;;-2.04;100.00
11053;BME280;55230;42.602;23.470;2023-02-16T02:26:20;94619.38;;;-2.13;100.00
11053;BME280;55230;42.602;23.470;2023-02-16T02:29:01;94640.38;;;-2.05;100.00
11053;BME280;55230;42.602;23.470;2023-02-16T02:31:44;94446.56;;;-3.33;100.00
11053;BME280;55230;42.602;23.470;2023-02-16T02:34:18;94635.53;;;-2.03;100.00
11053;BME280;55230;42.602;23.470;2023-02-16T02:36:55;94665.69;;;-2.04;100.00
11053;BME280;55230;42.602;23.470;2023-02-16T02:39:33;94554.84;;;-2.59;100.00
11053;BME280;55230;42.602;23.470;2023-02-16T02:42:04;94638.41;;;-2.08;100.00
11053;BME280;55230;42.602;23.470;2023-02-16T02:44:40;94636.19;;;-2.06;100.00
11053;BME280;55230;42.602;23.470;2023-02-16T02:47:08;94593.78;;;-2.41;100.00
11053;BME280;55230;42.602;23.470;2023-02-16T02:49:35;94561.56;;;-2.46;100.00
11053;BME280;55230;42.602;23.470;2023-02-16T02:52:02;94594.88;;;-2.57;100.00
11053;BME280;55230;42.602;23.470;2023-02-16T02:54:32;94658.28;;;-1.98;100.00
11053;BME280;55230;42.602;23.470;2023-02-16T02:57:20;94629.53;;;-2.00;100.00
11053;BME280;55230;42.602;23.470;2023-02-16T03:00:12;94554.06;;;-2.60;100.00
11053;BME280;55230;42.602;23.470;2023-02-16T03:03:01;94628.81;;;-2.00;100.00
11053;BME280;55230;42.602;23.470;2023-02-16T03:05:32;94630.91;;;-2.06;100.00
11053;BME280;55230;42.602;23.470;2023-02-16T03:08:02;94635.06;;;-2.20;100.00
11053;BME280;55230;42.602;23.470;2023-02-16T03:10:40;94643.06;;;-2.17;100.00
11053;BME280;55230;42.602;23.470;2023-02-16T03:13:27;94628.28;;;-2.49;100.00
11053;BME280;55230;42.602;23.470;2023-02-16T03:15:57;94381.38;;;-4.28;100.00
11053;BME280;55230;42.602;23.470;2023-02-16T03:18:27;94642.72;;;-2.15;100.00
11053;BME280;55230;42.602;23.470;2023-02-16T03:21:13;94682.69;;;-2.17;100.00
11053;BME280;55230;42.602;23.470;2023-02-16T03:23:59;94604.09;;;-2.36;100.00
11053;BME280;55230;42.602;23.470;2023-02-16T03:26:44;94665.25;;;-2.06;100.00
11053;BME280;55230;42.602;23.470;2023-02-16T03:29:30;94642.19;;;-2.09;100.00
11053;BME280;55230;42.602;23.470;2023-02-16T03:31:59;94617.69;;;-2.21;100.00
11053;BME280;55230;42.602;23.470;2023-02-16T03:34:28;94573.50;;;-2.52;100.00
11053;BME280;55230;42.602;23.470;2023-02-16T03:36:57;94627.06;;;-2.08;100.00
11053;BME280;55230;42.602;23.470;2023-02-16T03:39:25;94588.41;;;-2.44;100.00
11053;BME280;55230;42.602;23.470;2023-02-16T03:41:54;94636.03;;;-2.13;100.00
11053;BME280;55230;42.602;23.470;2023-02-16T03:44:21;94634.13;;;-2.28;100.00
11053;BME280;55230;42.602;23.470;2023-02-16T03:46:49;94636.69;;;-2.16;100.00
11053;BME280;55230;42.602;23.470;2023-02-16T03:49:18;94628.44;;;-2.14;100.00
11053;BME280;55230;42.602;23.470;2023-02-16T03:51:45;94630.13;;;-2.22;100.00
11053;BME280;55230;42.602;23.470;2023-02-16T03:54:12;94631.22;;;-2.23;100.00
11053;BME280;55230;42.602;23.470;2023-02-16T03:56:39;94238.44;;;-4.96;100.00
11053;BME280;55230;42.602;23.470;2023-02-16T03:59:06;94590.63;;;-2.46;100.00
11053;BME280;55230;42.602;23.470;2023-02-16T04:01:33;94435.06;;;-3.81;100.00
11053;BME280;55230;42.602;23.470;2023-02-16T04:03:59;94320.84;;;-4.40;100.00
11053;BME280;55230;42.602;23.470;2023-02-16T04:06:28;94228.88;;;-4.88;100.00
11053;BME280;55230;42.602;23.470;2023-02-16T04:08:55;94372.22;;;-3.94;100.00
11053;BME280;55230;42.602;23.470;2023-02-16T04:11:22;94464.16;;;-3.89;100.00
11053;BME280;55230;42.602;23.470;2023-02-16T04:14:06;94496.38;;;-3.16;100.00
11053;BME280;55230;42.602;23.470;2023-02-16T04:16:32;94615.41;;;-2.51;100.00
11053;BME280;55230;42.602;23.470;2023-02-16T04:18:59;94597.25;;;-2.52;100.00
11053;BME280;55230;42.602;23.470;2023-02-16T04:21:28;94416.53;;;-3.57;100.00
11053;BME280;55230;42.602;23.470;2023-02-16T04:23:54;94622.34;;;-2.30;100.00
11053;BME280;55230;42.602;23.470;2023-02-16T04:26:21;94617.16;;;-2.82;100.00
11053;BME280;55230;42.602;23.470;2023-02-16T04:28:48;94575.28;;;-2.56;100.00
11053;BME280;55230;42.602;23.470;2023-02-16T04:31:15;94619.63;;;-2.18;100.00
11053;BME280;55230;42.602;23.470;2023-02-16T04:33:41;94616.81;;;-2.25;100.00
11053;BME280;55230;42.602;23.470;2023-02-16T04:36:09;94603.31;;;-2.36;100.00
11053;BME280;55230;42.602;23.470;2023-02-16T04:38:37;94433.19;;;-3.40;100.00
11053;BME280;55230;42.602;23.470;2023-02-16T04:41:04;94596.28;;;-2.32;100.00
11053;BME280;55230;42.602;23.470;2023-02-16T04:43:31;94631.50;;;-2.12;100.00
11053;BME280;55230;42.602;23.470;2023-02-16T04:45:58;94628.59;;;-2.23;100.00
11053;BME280;55230;42.602;23.470;2023-02-16T04:48:24;94552.34;;;-2.68;100.00
11053;BME280;55230;42.602;23.470;2023-02-16T04:50:51;94625.34;;;-2.16;100.00
11053;BME280;55230;42.602;23.470;2023-02-16T04:53:18;94675.66;;;-2.13;100.00
11053;BME280;55230;42.602;23.470;2023-02-16T04:55:47;94619.97;;;-2.20;100.00
11053;BME280;55230;42.602;23.470;2023-02-16T04:58:15;94523.56;;;-3.00;100.00
11053;BME280;55230;42.602;23.470;2023-02-16T05:00:42;94585.34;;;-2.46;100.00
11053;BME280;55230;42.602;23.470;2023-02-16T05:03:08;94509.31;;;-3.11;100.00
11053;BME280;55230;42.602;23.470;2023-02-16T05:05:35;94634.03;;;-2.31;100.00
11053;BME280;55230;42.602;23.470;2023-02-16T05:08:02;94553.50;;;-2.81;100.00
11053;BME280;55230;42.602;23.470;2023-02-16T05:10:29;94635.66;;;-2.27;100.00
11053;BME280;55230;42.602;23.470;2023-02-16T05:12:58;94634.97;;;-2.24;100.00
11053;BME280;55230;42.602;23.470;2023-02-16T05:15:42;94548.69;;;-2.91;100.00
11053;BME280;55230;42.602;23.470;2023-02-16T05:18:09;94633.00;;;-2.27;100.00
11053;BME280;55230;42.602;23.470;2023-02-16T05:20:36;94279.97;;;-5.01;100.00
11053;BME280;55230;42.602;23.470;2023-02-16T05:23:20;94553.16;;;-2.79;100.00
11053;BME280;55230;42.602;23.470;2023-02-16T05:25:47;94640.25;;;-2.24;100.00
11053;BME280;55230;42.602;23.470;2023-02-16T05:28:15;94640.44;;;-2.17;100.00
11053;BME280;55230;42.602;23.470;2023-02-16T05:30:45;94623.31;;;-2.23;100.00
11053;BME280;55230;42.602;23.470;2023-02-16T05:33:12;94230.41;;;-4.75;100.00
11053;BME280;55230;42.602;23.470;2023-02-16T05:35:42;93994.63;;;-6.30;100.00
11053;BME280;55230;42.602;23.470;2023-02-16T05:38:12;94089.97;;;-6.26;100.00
11053;BME280;55230;42.602;23.470;2023-02-16T05:40:42;94046.03;;;-6.41;100.00
11053;BME280;55230;42.602;23.470;2023-02-16T05:43:15;94238.34;;;-4.99;100.00
11053;BME280;55230;42.602;23.470;2023-02-16T05:45:45;94627.44;;;-1.94;100.00
11053;BME280;55230;42.602;23.470;2023-02-16T05:48:13;94507.34;;;-3.14;100.00
11053;BME280;55230;42.602;23.470;2023-02-16T05:50:42;94729.31;;;-1.54;100.00
11053;BME280;55230;42.602;23.470;2023-02-16T05:53:09;94671.34;;;-1.43;100.00
11053;BME280;55230;42.602;23.470;2023-02-16T05:55:36;94662.88;;;-1.02;100.00
11053;BME280;55230;42.602;23.470;2023-02-16T05:58:03;94676.97;;;-0.79;100.00
11053;BME280;55230;42.602;23.470;2023-02-16T06:00:30;94692.44;;;-0.46;100.00
11053;BME280;55230;42.602;23.470;2023-02-16T06:02:59;94440.25;;;-1.73;100.00
11053;BME280;55230;42.602;23.470;2023-02-16T06:05:26;94387.66;;;-1.78;100.00
11053;BME280;55230;42.602;23.470;2023-02-16T06:07:52;94308.59;;;-2.75;100.00
11053;BME280;55230;42.602;23.470;2023-02-16T06:10:19;94663.69;;;-0.06;100.00
11053;BME280;55230;42.602;23.470;2023-02-16T06:12:46;94662.94;;;-0.45;100.00
11053;BME280;55230;42.602;23.470;2023-02-16T06:15:13;94282.28;;;-2.87;100.00
11053;BME280;55230;42.602;23.470;2023-02-16T06:17:40;94620.22;;;-0.81;100.00
11053;BME280;55230;42.602;23.470;2023-02-16T06:20:10;94606.53;;;-0.83;100.00
11053;BME280;55230;42.602;23.470;2023-02-16T06:22:37;94571.19;;;-1.10;100.00
11053;BME280;55230;42.602;23.470;2023-02-16T06:25:04;94398.03;;;-2.39;100.00
11053;BME280;55230;42.602;23.470;2023-02-16T06:27:31;94678.69;;;-0.52;100.00
11053;BME280;55230;42.602;23.470;2023-02-16T06:29:58;94640.84;;;-0.33;100.00
11053;BME280;55230;42.602;23.470;2023-02-16T06:32:25;94693.28;;;0.38;100.00
11053;BME280;55230;42.602;23.470;2023-02-16T06:34:51;94700.66;;;0.06;100.00
11053;BME280;55230;42.602;23.470;2023-02-16T06:37:19;94674.59;;;-0.11;100.00
11053;BME280;55230;42.602;23.470;2023-02-16T06:39:47;94703.53;;;0.39;100.00
11053;BME280;55230;42.602;23.470;2023-02-16T06:42:14;94237.75;;;-2.73;100.00
11053;BME280;55230;42.602;23.470;2023-02-16T06:44:41;94739.00;;;0.31;100.00
11053;BME280;55230;42.602;23.470;2023-02-16T06:47:08;94650.69;;;0.08;100.00
11053;BME280;55230;42.602;23.470;2023-02-16T06:49:35;94577.31;;;0.16;100.00
11053;BME280;55230;42.602;23.470;2023-02-16T06:52:02;94457.31;;;-0.94;100.00
11053;BME280;55230;42.602;23.470;2023-02-16T06:54:30;94618.00;;;-0.19;100.00
11053;BME280;55230;42.602;23.470;2023-02-16T06:56:57;94701.88;;;0.31;100.00
11053;BME280;55230;42.602;23.470;2023-02-16T06:59:24;94459.88;;;-0.98;100.00
11053;BME280;55230;42.602;23.470;2023-02-16T07:01:50;94695.53;;;0.58;100.00
11053;BME280;55230;42.602;23.470;2023-02-16T07:04:17;94439.53;;;-0.75;100.00
11053;BME280;55230;42.602;23.470;2023-02-16T07:06:44;94699.53;;;0.71;100.00
11053;BME280;55230;42.602;23.470;2023-02-16T07:09:11;94678.78;;;0.54;100.00
11053;BME280;55230;42.602;23.470;2023-02-16T07:11:39;94690.69;;;0.41;100.00
11053;BME280;55230;42.602;23.470;2023-02-16T07:14:06;94685.00;;;0.20;100.00
11053;BME280;55230;42.602;23.470;2023-02-16T07:16:32;94706.28;;;0.24;100.00
11053;BME280;55230;42.602;23.470;2023-02-16T07:18:59;94330.50;;;-2.40;100.00
11053;BME280;55230;42.602;23.470;2023-02-16T07:21:26;94671.09;;;-0.15;100.00
11053;BME280;55230;42.602;23.470;2023-02-16T07:23:53;94551.00;;;-0.19;100.00
11053;BME280;55230;42.602;23.470;2023-02-16T07:26:19;94672.50;;;1.41;100.00
11053;BME280;55230;42.602;23.470;2023-02-16T07:28:47;94583.44;;;1.21;100.00
11053;BME280;55230;42.602;23.470;2023-02-16T07:31:15;94626.22;;;2.11;98.35
11053;BME280;55230;42.602;23.470;2023-02-16T07:33:42;94692.00;;;2.51;95.66
11053;BME280;55230;42.602;23.470;2023-02-16T07:36:11;94678.88;;;2.32;96.63
11053;BME280;55230;42.602;23.470;2023-02-16T07:38:38;94632.81;;;1.88;96.34
11053;BME280;55230;42.602;23.470;2023-02-16T07:41:06;94671.50;;;1.82;99.41
11053;BME280;55230;42.602;23.470;2023-02-16T07:43:33;94673.09;;;1.57;100.00
11053;BME280;55230;42.602;23.470;2023-02-16T07:46:01;94677.50;;;1.46;100.00
11053;BME280;55230;42.602;23.470;2023-02-16T07:48:28;94665.78;;;0.94;100.00
11053;BME280;55230;42.602;23.470;2023-02-16T07:50:55;94696.38;;;1.37;100.00
11053;BME280;55230;42.602;23.470;2023-02-16T07:53:21;94682.19;;;0.77;100.00
11053;BME280;55230;42.602;23.470;2023-02-16T07:55:48;94676.72;;;1.15;100.00
11053;BME280;55230;42.602;23.470;2023-02-16T07:58:15;94684.78;;;1.52;100.00
11053;BME280;55230;42.602;23.470;2023-02-16T08:00:52;94646.47;;;1.24;100.00
11053;BME280;55230;42.602;23.470;2023-02-16T08:03:20;94628.28;;;1.26;100.00
11053;BME280;55230;42.602;23.470;2023-02-16T08:05:47;94610.91;;;1.05;100.00
11053;BME280;55230;42.602;23.470;2023-02-16T08:08:14;94678.41;;;1.57;100.00
11053;BME280;55230;42.602;23.470;2023-02-16T08:10:40;94529.50;;;0.61;100.00
11053;BME280;55230;42.602;23.470;2023-02-16T08:13:07;94634.84;;;1.65;100.00
11053;BME280;55230;42.602;23.470;2023-02-16T08:15:34;94633.03;;;1.72;100.00
11053;BME280;55230;42.602;23.470;2023-02-16T08:18:01;94688.09;;;2.38;100.00
11053;BME280;55230;42.602;23.470;2023-02-16T08:20:29;94712.22;;;2.59;100.00
11053;BME280;55230;42.602;23.470;2023-02-16T08:22:56;94636.06;;;2.07;100.00
11053;BME280;55230;42.602;23.470;2023-02-16T08:25:23;94657.03;;;2.16;100.00
11053;BME280;55230;42.602;23.470;2023-02-16T08:27:50;94694.41;;;2.63;100.00
11053;BME280;55230;42.602;23.470;2023-02-16T08:30:17;94651.06;;;2.66;99.98
11053;BME280;55230;42.602;23.470;2023-02-16T08:32:45;94703.06;;;3.00;99.60
11053;BME280;55230;42.602;23.470;2023-02-16T08:35:15;94685.00;;;2.76;99.04
11053;BME280;55230;42.602;23.470;2023-02-16T08:37:43;94697.56;;;2.76;100.00
11053;BME280;55230;42.602;23.470;2023-02-16T08:40:11;94566.22;;;1.41;100.00
11053;BME280;55230;42.602;23.470;2023-02-16T08:42:38;94741.78;;;2.87;100.00
11053;BME280;55230;42.602;23.470;2023-02-16T08:45:06;94465.56;;;1.76;100.00
11053;BME280;55230;42.602;23.470;2023-02-16T08:47:33;94278.00;;;0.80;99.23
11053;BME280;55230;42.602;23.470;2023-02-16T08:50:01;94697.66;;;4.23;96.05
11053;BME280;55230;42.602;23.470;2023-02-16T08:52:27;94629.59;;;3.68;93.57
11053;BME280;55230;42.602;23.470;2023-02-16T08:54:55;94621.09;;;3.37;95.66
11053;BME280;55230;42.602;23.470;2023-02-16T08:57:22;94697.59;;;3.95;96.96
11053;BME280;55230;42.602;23.470;2023-02-16T08:59:49;94664.34;;;3.82;95.10
11053;BME280;55230;42.602;23.470;2023-02-16T09:02:36;94703.75;;;4.16;93.24
11053;BME280;55230;42.602;23.470;2023-02-16T09:05:03;94618.34;;;3.23;95.74
11053;BME280;55230;42.602;23.470;2023-02-16T09:07:30;94712.00;;;3.83;97.77
11053;BME280;55230;42.602;23.470;2023-02-16T09:10:00;94655.94;;;3.80;92.98
11053;BME280;55230;42.602;23.470;2023-02-16T09:12:27;94730.47;;;4.20;92.17
11053;BME280;55230;42.602;23.470;2023-02-16T09:14:55;94643.03;;;3.89;95.43
11053;BME280;55230;42.602;23.470;2023-02-16T09:17:23;94696.25;;;4.78;92.63
11053;BME280;55230;42.602;23.470;2023-02-16T09:19:49;94701.25;;;4.83;88.16
11053;BME280;55230;42.602;23.470;2023-02-16T09:22:16;94691.63;;;4.33;88.29
11053;BME280;55230;42.602;23.470;2023-02-16T09:24:43;94574.84;;;3.95;88.63
11053;BME280;55230;42.602;23.470;2023-02-16T09:30:18;94603.03;;;3.96;85.82
11053;BME280;55230;42.602;23.470;2023-02-16T09:32:45;94697.00;;;4.61;89.06
11053;BME280;55230;42.602;23.470;2023-02-16T09:35:12;94621.75;;;4.03;84.39
11053;BME280;55230;42.602;23.470;2023-02-16T09:37:40;94648.91;;;4.50;85.92
11053;BME280;55230;42.602;23.470;2023-02-16T09:40:10;94680.25;;;5.03;81.54
11053;BME280;55230;42.602;23.470;2023-02-16T09:42:49;94346.47;;;2.95;79.36
11053;BME280;55230;42.602;23.470;2023-02-16T09:45:21;94248.63;;;2.57;81.26
11053;BME280;55230;42.602;23.470;2023-02-16T09:47:51;94614.56;;;4.35;81.31
11053;BME280;55230;42.602;23.470;2023-02-16T09:50:21;94677.19;;;5.11;81.84
11053;BME280;55230;42.602;23.470;2023-02-16T09:52:52;94672.22;;;4.92;81.77
11053;BME280;55230;42.602;23.470;2023-02-16T09:55:22;94682.16;;;5.06;82.88
11053;BME280;55230;42.602;23.470;2023-02-16T09:58:00;94638.97;;;5.25;82.67
11053;BME280;55230;42.602;23.470;2023-02-16T10:00:43;94670.22;;;5.63;78.72
11053;BME280;55230;42.602;23.470;2023-02-16T10:03:21;94712.31;;;5.48;79.85
11053;BME280;55230;42.602;23.470;2023-02-16T10:05:55;94650.41;;;5.39;80.40
11053;BME280;55230;42.602;23.470;2023-02-16T10:08:28;94582.34;;;5.54;80.18
11053;BME280;55230;42.602;23.470;2023-02-16T10:11:02;94662.59;;;6.55;78.91
11053;BME280;55230;42.602;23.470;2023-02-16T10:13:36;94631.56;;;5.92;78.37
11053;BME280;55230;42.602;23.470;2023-02-16T10:16:12;94650.41;;;6.47;77.47
11053;BME280;55230;42.602;23.470;2023-02-16T10:18:42;94602.84;;;6.61;75.51
11053;BME280;55230;42.602;23.470;2023-02-16T10:21:16;94649.44;;;7.26;76.01
11053;BME280;55230;42.602;23.470;2023-02-16T10:23:50;94647.66;;;6.61;75.76
11053;BME280;55230;42.602;23.470;2023-02-16T10:26:21;94650.16;;;6.24;78.19
11053;BME280;55230;42.602;23.470;2023-02-16T10:28:53;94654.03;;;6.16;78.00
11053;BME280;55230;42.602;23.470;2023-02-16T10:31:28;94661.56;;;6.38;78.41
11053;BME280;55230;42.602;23.470;2023-02-16T10:34:16;94641.56;;;6.57;78.16
11053;BME280;55230;42.602;23.470;2023-02-16T10:36:59;94636.19;;;7.04;77.32
11053;BME280;55230;42.602;23.470;2023-02-16T10:39:34;94639.91;;;6.70;76.41
11053;BME280;55230;42.602;23.470;2023-02-16T10:42:14;94598.97;;;6.08;76.92
11053;BME280;55230;42.602;23.470;2023-02-16T10:44:45;94564.88;;;6.15;76.31
11053;BME280;55230;42.602;23.470;2023-02-16T10:47:25;94590.06;;;6.83;75.08
11053;BME280;55230;42.602;23.470;2023-02-16T10:49:54;94431.50;;;5.41;74.42
11053;BME280;55230;42.602;23.470;2023-02-16T10:52:22;94593.44;;;6.87;74.83
11053;BME280;55230;42.602;23.470;2023-02-16T10:54:50;94553.47;;;6.62;74.98
11053;BME280;55230;42.602;23.470;2023-02-16T10:57:24;94581.69;;;6.74;74.45
11053;BME280;55230;42.602;23.470;2023-02-16T10:59:52;94612.47;;;7.03;77.11
11053;BME280;55230;42.602;23.470;2023-02-16T11:02:24;94614.25;;;7.17;74.61
11053;BME280;55230;42.602;23.470;2023-02-16T11:04:52;94608.28;;;7.39;77.23
11053;BME280;55230;42.602;23.470;2023-02-16T11:07:21;94608.44;;;7.62;73.11
11053;BME280;55230;42.602;23.470;2023-02-16T11:09:49;94606.19;;;7.91;71.95
11053;BME280;55230;42.602;23.470;2023-02-16T11:12:25;94547.00;;;7.71;73.27
11053;BME280;55230;42.602;23.470;2023-02-16T11:14:54;94296.81;;;6.06;70.56
11053;BME280;55230;42.602;23.470;2023-02-16T11:17:24;94577.22;;;7.01;72.52
11053;BME280;55230;42.602;23.470;2023-02-16T11:19:53;94593.38;;;7.38;73.03
11053;BME280;55230;42.602;23.470;2023-02-16T11:22:31;94590.94;;;7.47;72.26
11053;BME280;55230;42.602;23.470;2023-02-16T11:25:23;94561.09;;;7.45;72.39
11053;BME280;55230;42.602;23.470;2023-02-16T11:27:53;94498.03;;;6.93;71.93
11053;BME280;55230;42.602;23.470;2023-02-16T11:30:28;94607.84;;;7.81;70.89
11053;BME280;55230;42.602;23.470;2023-02-16T11:32:59;94543.97;;;7.96;71.14
11053;BME280;55230;42.602;23.470;2023-02-16T11:35:29;94558.44;;;8.05;67.76
11053;BME280;55230;42.602;23.470;2023-02-16T11:37:57;94545.84;;;7.99;69.40
11053;BME280;55230;42.602;23.470;2023-02-16T11:40:27;94579.91;;;8.05;67.70
11053;BME280;55230;42.602;23.470;2023-02-16T11:42:56;94598.72;;;8.36;67.65
11053;BME280;55230;42.602;23.470;2023-02-16T11:45:27;94123.72;;;5.62;66.04
11053;BME280;55230;42.602;23.470;2023-02-16T11:47:59;94239.50;;;6.34;65.08
11053;BME280;55230;42.602;23.470;2023-02-16T11:50:27;94544.13;;;8.12;64.90
11053;BME280;55230;42.602;23.470;2023-02-16T11:52:57;94561.72;;;8.70;66.03
11053;BME280;55230;42.602;23.470;2023-02-16T11:55:40;94571.56;;;9.03;63.66
11053;BME280;55230;42.602;23.470;2023-02-16T11:58:16;94544.97;;;8.36;62.77
11053;BME280;55230;42.602;23.470;2023-02-16T12:00:54;94568.03;;;8.60;62.11
11053;BME280;55230;42.602;23.470;2023-02-16T12:03:41;94597.13;;;8.65;61.53
11053;BME280;55230;42.602;23.470;2023-02-16T12:06:25;94522.38;;;8.33;58.03
11053;BME280;55230;42.602;23.470;2023-02-16T12:09:04;94596.84;;;8.59;58.32
11053;BME280;55230;42.602;23.470;2023-02-16T12:11:38;94324.53;;;6.93;59.17
11053;BME280;55230;42.602;23.470;2023-02-16T12:14:26;94554.22;;;8.35;56.54
11053;BME280;55230;42.602;23.470;2023-02-16T12:17:02;94532.34;;;8.33;55.11
11053;BME280;55230;42.602;23.470;2023-02-16T12:19:39;94569.00;;;8.73;57.30
11053;BME280;55230;42.602;23.470;2023-02-16T12:22:21;94547.22;;;9.10;56.26
11053;BME280;55230;42.602;23.470;2023-02-16T12:25:00;94554.31;;;9.43;55.02
11053;BME280;55230;42.602;23.470;2023-02-16T12:27:36;94473.97;;;9.22;52.56
11053;BME280;55230;42.602;23.470;2023-02-16T12:30:12;94568.63;;;9.79;51.10
11053;BME280;55230;42.602;23.470;2023-02-16T12:33:01;94469.81;;;8.98;49.92
11053;BME280;55230;42.602;23.470;2023-02-16T12:35:49;94517.19;;;9.54;47.73
11053;BME280;55230;42.602;23.470;2023-02-16T12:38:33;94534.97;;;9.48;47.31
11053;BME280;55230;42.602;23.470;2023-02-16T12:41:11;94484.81;;;9.38;48.01
11053;BME280;55230;42.602;23.470;2023-02-16T12:43:45;94522.41;;;9.22;51.99
11053;BME280;55230;42.602;23.470;2023-02-16T12:46:16;94516.00;;;9.16;49.77
11053;BME280;55230;42.602;23.470;2023-02-16T12:48:48;94101.06;;;6.57;48.17
11053;BME280;55230;42.602;23.470;2023-02-16T12:51:20;94513.25;;;9.59;48.95
11053;BME280;55230;42.602;23.470;2023-02-16T12:53:54;94492.50;;;9.75;48.92
11053;BME280;55230;42.602;23.470;2023-02-16T12:56:25;94512.50;;;10.13;48.52
11053;BME280;55230;42.602;23.470;2023-02-16T12:59:02;94447.31;;;9.83;47.37
11053;BME280;55230;42.602;23.470;2023-02-16T13:01:32;94515.59;;;9.92;47.29
11053;BME280;55230;42.602;23.470;2023-02-16T13:04:04;94329.81;;;8.23;48.63
11053;BME280;55230;42.602;23.470;2023-02-16T13:06:39;94434.34;;;9.03;48.28
11053;BME280;55230;42.602;23.470;2023-02-16T13:09:13;94492.31;;;9.66;47.93
11053;BME280;55230;42.602;23.470;2023-02-16T13:11:48;94466.78;;;9.35;47.57
11053;BME280;55230;42.602;23.470;2023-02-16T13:14:19;94486.53;;;9.84;47.26